Time;durP1;ratioP1;P1;durP2;ratioP2;P2;SDS_P1;SDS_P2;PMS_P1;PMS_P2;Temp;Humidity;BMP_temperature;BMP_pressure;BME280_temperature;BME280_humidity;BME280_pressure;Samples;Min_cycle;Max_cycle;Signal;HPM_P1;HPM_P2
2022/12/05 00:05:07;;;;;;;55.70;50.65;;;;;;;;;;10190335;28;20124;-74
2022/12/05 00:10:04;;;;;;;59.95;54.25;;;;;;;;;;10188193;28;20707;-73
2022/12/05 00:15:01;;;;;;;61.88;56.50;;;;;;;;;;10215057;28;20064;-73
2022/12/05 00:19:57;;;;;;;59.65;54.70;;;;;;;;;;10201221;28;20060;-72
2022/12/05 00:25:05;;;;;;;63.38;58.13;;;;;;;;;;10198846;28;20092;-72
2022/12/05 00:30:01;;;;;;;61.50;56.60;;;;;;;;;;10198809;28;20042;-73
2022/12/05 00:35:01;;;;;;;59.70;55.15;;;;;;;;;;10222547;28;20045;-71
2022/12/05 00:40:03;;;;;;;63.97;58.97;;;;;;;;;;10211468;28;20056;-73
2022/12/05 00:45:13;;;;;;;57.20;52.75;;;;;;;;;;10195190;28;20061;-73
2022/12/05 00:50:15;;;;;;;63.15;58.10;;;;;;;;;;10204361;28;20052;-73
2022/12/05 00:55:15;;;;;;;62.53;57.85;;;;;;;;;;10203547;28;20076;-73
2022/12/05 01:00:11;;;;;;;64.40;59.33;;;;;;;;;;10198220;28;20125;-74
2022/12/05 01:05:11;;;;;;;65.22;60.20;;;;;;;;;;10197586;28;20698;-70
2022/12/05 01:10:11;;;;;;;60.28;55.40;;;;;;;;;;10198361;28;20057;-70
2022/12/05 01:15:11;;;;;;;61.85;56.92;;;;;;;;;;10205159;28;20123;-71
2022/12/05 01:20:07;;;;;;;61.15;56.60;;;;;;;;;;10204124;28;20042;-70
2022/12/05 01:25:07;;;;;;;59.17;54.65;;;;;;;;;;10189971;28;20054;-71
2022/12/05 01:30:05;;;;;;;62.17;57.55;;;;;;;;;;10212749;28;20056;-71
2022/12/05 01:35:05;;;;;;;63.47;58.67;;;;;;;;;;10197655;28;20474;-71
2022/12/05 01:40:04;;;;;;;58.53;54.13;;;;;;;;;;10192735;28;20100;-71
2022/12/05 01:45:07;;;;;;;60.25;55.95;;;;;;;;;;10205568;28;20085;-69
2022/12/05 01:50:04;;;;;;;62.78;58.00;;;;;;;;;;10199725;28;20053;-70
2022/12/05 01:55:04;;;;;;;60.65;56.13;;;;;;;;;;10206051;28;20092;-70
2022/12/05 02:00:04;;;;;;;63.72;59.25;;;;;;;;;;10206149;28;20048;-70
2022/12/05 02:10:06;;;;;;;64.90;60.40;;;;;;;;;;10212335;23;20078;-68
2022/12/05 02:15:02;;;;;;;64.05;59.15;;;;;;;;;;10120110;28;20043;-69
2022/12/05 02:20:22;;;;;;;61.72;57.25;;;;;;;;;;10117076;28;20411;-71
2022/12/05 02:25:29;;;;;;;60.83;56.63;;;;;;;;;;10101001;28;20058;-70
2022/12/05 02:30:25;;;;;;;62.00;57.42;;;;;;;;;;10110945;28;20043;-70
2022/12/05 02:35:45;;;;;;;65.30;60.30;;;;;;;;;;10113017;28;20417;-72
2022/12/05 02:41:01;;;;;;;63.70;58.83;;;;;;;;;;10130160;28;20524;-71
2022/12/05 02:46:00;;;;;;;66.63;62.05;;;;;;;;;;10115606;28;20045;-70
2022/12/05 02:50:57;;;;;;;69.38;63.70;;;;;;;;;;10108354;28;20504;-71
2022/12/05 02:55:54;;;;;;;71.22;65.35;;;;;;;;;;10105283;28;20503;-71
2022/12/05 03:00:52;;;;;;;68.53;63.15;;;;;;;;;;10109213;28;20062;-71
2022/12/05 03:05:55;;;;;;;70.93;65.53;;;;;;;;;;10114770;28;20073;-71
2022/12/05 03:10:52;;;;;;;70.70;65.35;;;;;;;;;;10112467;28;20050;-72
2022/12/05 03:15:50;;;;;;;72.15;66.70;;;;;;;;;;10108338;28;20062;-71
2022/12/05 03:20:48;;;;;;;73.80;68.32;;;;;;;;;;10108302;28;20055;-71
2022/12/05 03:25:56;;;;;;;77.10;71.07;;;;;;;;;;10099301;28;20057;-71
2022/12/05 03:30:54;;;;;;;74.93;69.13;;;;;;;;;;10107917;28;20555;-71
2022/12/05 03:35:56;;;;;;;77.57;71.53;;;;;;;;;;10105951;28;20471;-72
2022/12/05 03:41:04;;;;;;;78.60;72.55;;;;;;;;;;10129919;28;20438;-72
2022/12/05 03:46:05;;;;;;;74.55;68.68;;;;;;;;;;10122360;28;20043;-72
2022/12/05 03:51:03;;;;;;;81.03;74.35;;;;;;;;;;10124727;28;20043;-72
2022/12/05 03:56:02;;;;;;;81.30;75.20;;;;;;;;;;10113254;28;20042;-73
2022/12/05 04:01:00;;;;;;;85.18;78.53;;;;;;;;;;10120628;28;20485;-72
2022/12/05 04:05:58;;;;;;;85.22;78.35;;;;;;;;;;10113863;28;20054;-73
2022/12/05 04:10:57;;;;;;;82.57;75.97;;;;;;;;;;10120474;28;20129;-71
2022/12/05 04:26:30;;;;;;;76.03;70.93;;;;;;;;;;10115422;28;20416;-73
2022/12/05 04:31:31;;;;;;;85.93;79.20;;;;;;;;;;10113825;28;20049;-70
2022/12/05 04:36:30;;;;;;;87.85;80.70;;;;;;;;;;10097973;28;20074;-71
2022/12/05 04:41:31;;;;;;;91.00;83.13;;;;;;;;;;10107603;28;20065;-71
2022/12/05 04:46:27;;;;;;;87.03;79.75;;;;;;;;;;10113621;28;20046;-72
2022/12/05 04:51:25;;;;;;;88.88;81.65;;;;;;;;;;10108164;28;20043;-72
2022/12/05 04:56:26;;;;;;;87.15;79.57;;;;;;;;;;10111457;28;20470;-72
2022/12/05 05:01:41;;;;;;;85.07;78.03;;;;;;;;;;10099058;28;21039;-71
2022/12/05 05:06:38;;;;;;;83.20;76.55;;;;;;;;;;10090541;28;20108;-71
2022/12/05 05:11:35;;;;;;;88.63;81.47;;;;;;;;;;10092552;28;20062;-72
2022/12/05 05:16:33;;;;;;;84.80;77.50;;;;;;;;;;10087621;28;20590;-70
2022/12/05 05:21:31;;;;;;;91.68;83.40;;;;;;;;;;10093344;28;20046;-72
2022/12/05 05:26:28;;;;;;;93.60;85.15;;;;;;;;;;10089732;28;20047;-73
2022/12/05 05:31:24;;;;;;;92.50;84.63;;;;;;;;;;10090707;28;20051;-72
2022/12/05 05:36:22;;;;;;;90.68;82.97;;;;;;;;;;10103334;28;20061;-72
2022/12/05 05:41:19;;;;;;;91.32;82.60;;;;;;;;;;10117674;28;20066;-73
2022/12/05 05:46:16;;;;;;;98.75;90.32;;;;;;;;;;10113394;28;20054;-74
2022/12/05 05:51:13;;;;;;;96.60;87.50;;;;;;;;;;10109033;28;20052;-70
2022/12/05 05:56:11;;;;;;;94.10;86.03;;;;;;;;;;10112482;28;20058;-70
2022/12/05 06:01:16;;;;;;;90.85;83.05;;;;;;;;;;10115131;28;20513;-70
2022/12/05 06:06:13;;;;;;;90.32;81.10;;;;;;;;;;10108657;28;20058;-70
2022/12/05 06:11:11;;;;;;;93.03;84.03;;;;;;;;;;10107810;28;20053;-70
2022/12/05 06:16:08;;;;;;;88.93;79.88;;;;;;;;;;10126444;28;20529;-69
2022/12/05 06:21:07;;;;;;;92.25;82.90;;;;;;;;;;10116787;28;20039;-70
2022/12/05 06:26:15;;;;;;;89.97;81.10;;;;;;;;;;10107026;28;20050;-70
2022/12/05 06:31:13;;;;;;;90.47;81.47;;;;;;;;;;10109878;28;20085;-69
2022/12/05 06:36:11;;;;;;;91.63;81.93;;;;;;;;;;10126962;28;20057;-70
2022/12/05 06:41:09;;;;;;;85.47;77.03;;;;;;;;;;10117481;28;20051;-69
2022/12/05 06:46:06;;;;;;;89.28;79.85;;;;;;;;;;10124037;28;20060;-71
2022/12/05 06:51:03;;;;;;;87.20;77.45;;;;;;;;;;10111252;28;20434;-69
2022/12/05 06:56:01;;;;;;;85.65;76.38;;;;;;;;;;10126573;28;20067;-70
2022/12/05 07:06:13;;;;;;;88.97;76.75;;;;;;;;;;10111457;28;20231;-69
2022/12/05 07:11:09;;;;;;;88.95;77.55;;;;;;;;;;10109913;28;20085;-69
2022/12/05 07:16:06;;;;;;;103.82;80.18;;;;;;;;;;10098888;28;20050;-69
2022/12/05 07:21:06;;;;;;;91.82;76.07;;;;;;;;;;10105726;28;20050;-69
2022/12/05 07:26:09;;;;;;;81.18;72.57;;;;;;;;;;10117305;28;20121;-69
2022/12/05 07:31:10;;;;;;;75.20;67.03;;;;;;;;;;10129629;28;20045;-69
2022/12/05 07:36:10;;;;;;;78.60;69.75;;;;;;;;;;10118950;28;20130;-69
2022/12/05 07:41:13;;;;;;;72.22;64.90;;;;;;;;;;10118632;28;20507;-69
2022/12/05 07:46:13;;;;;;;79.88;67.45;;;;;;;;;;10101649;28;20589;-69
2022/12/05 07:51:09;;;;;;;73.35;65.57;;;;;;;;;;10123532;28;20078;-69
2022/12/05 07:56:07;;;;;;;76.32;63.10;;;;;;;;;;10112811;28;20046;-69
2022/12/05 08:01:07;;;;;;;71.82;61.85;;;;;;;;;;10120819;28;20469;-69
2022/12/05 08:06:05;;;;;;;67.22;59.95;;;;;;;;;;10117468;28;20569;-69
2022/12/05 08:11:02;;;;;;;66.82;57.80;;;;;;;;;;10100094;28;20121;-70
2022/12/05 08:16:00;;;;;;;69.18;53.58;;;;;;;;;;10104804;28;20113;-71
2022/12/05 08:21:03;;;;;;;60.55;51.70;;;;;;;;;;10106868;28;20050;-71
2022/12/05 08:26:04;;;;;;;67.97;55.50;;;;;;;;;;10095817;28;20054;-70
2022/12/05 08:31:22;;;;;;;68.70;52.65;;;;;;;;;;10093088;28;20120;-71
2022/12/05 08:36:19;;;;;;;62.28;51.30;;;;;;;;;;10107765;28;20046;-71
2022/12/05 08:41:16;;;;;;;59.88;50.95;;;;;;;;;;10109949;28;20077;-71
2022/12/05 08:46:13;;;;;;;73.22;52.88;;;;;;;;;;10113059;28;20075;-71
2022/12/05 08:51:10;;;;;;;65.78;51.78;;;;;;;;;;10122967;28;20081;-71
2022/12/05 08:56:08;;;;;;;62.40;50.20;;;;;;;;;;10105534;28;20156;-72
2022/12/05 09:01:08;;;;;;;57.92;49.45;;;;;;;;;;10109719;28;20047;-71
2022/12/05 09:06:11;;;;;;;65.13;52.42;;;;;;;;;;10118977;28;20577;-71
2022/12/05 09:11:16;;;;;;;57.47;48.33;;;;;;;;;;10104170;28;20058;-71
2022/12/05 09:16:17;;;;;;;60.35;49.28;;;;;;;;;;10113993;28;20141;-71
2022/12/05 09:21:15;;;;;;;61.15;51.08;;;;;;;;;;10111151;28;20043;-71
2022/12/05 09:26:13;;;;;;;62.38;50.38;;;;;;;;;;10133429;28;20053;-71
2022/12/05 09:31:11;;;;;;;63.35;52.50;;;;;;;;;;10118984;28;20078;-72
2022/12/05 09:36:10;;;;;;;63.85;53.85;;;;;;;;;;10110616;28;20042;-71
2022/12/05 09:41:06;;;;;;;70.68;57.20;;;;;;;;;;10121993;28;20070;-71
2022/12/05 09:46:09;;;;;;;65.82;58.83;;;;;;;;;;10108653;28;20044;-71
2022/12/05 09:51:08;;;;;;;66.07;59.05;;;;;;;;;;10120701;28;20049;-72
2022/12/05 09:56:25;;;;;;;68.57;61.47;;;;;;;;;;10107317;28;20043;-71
2022/12/05 10:01:24;;;;;;;76.15;65.45;;;;;;;;;;10126459;28;20046;-71
2022/12/05 10:06:24;;;;;;;69.35;62.33;;;;;;;;;;10121430;28;20038;-71
2022/12/05 10:11:20;;;;;;;71.53;64.07;;;;;;;;;;10124096;28;20101;-71
2022/12/05 10:16:21;;;;;;;72.68;65.28;;;;;;;;;;10115598;28;20046;-71
2022/12/05 10:21:17;;;;;;;75.70;68.05;;;;;;;;;;10114012;28;20050;-71
2022/12/05 10:26:15;;;;;;;76.95;69.20;;;;;;;;;;10114714;28;20085;-72
2022/12/05 10:31:13;;;;;;;80.40;72.78;;;;;;;;;;10115745;28;20135;-72
2022/12/05 10:36:13;;;;;;;77.72;70.95;;;;;;;;;;10123013;28;20077;-71
2022/12/05 10:41:11;;;;;;;80.40;73.13;;;;;;;;;;10107947;28;20421;-71
2022/12/05 10:46:08;;;;;;;79.38;72.10;;;;;;;;;;10138882;28;20821;-71
2022/12/05 10:51:13;;;;;;;76.45;69.72;;;;;;;;;;10122068;28;20138;-70
2022/12/05 10:56:29;;;;;;;80.32;73.22;;;;;;;;;;10120802;28;20058;-70
2022/12/05 11:01:26;;;;;;;80.28;73.57;;;;;;;;;;10128275;28;20046;-69
2022/12/05 11:06:26;;;;;;;76.80;70.13;;;;;;;;;;10111434;28;20050;-69
2022/12/05 11:11:24;;;;;;;75.68;68.50;;;;;;;;;;10108532;28;20047;-69
2022/12/05 11:16:28;;;;;;;73.45;66.78;;;;;;;;;;10098820;28;20048;-69
2022/12/05 11:21:25;;;;;;;81.68;74.78;;;;;;;;;;10094795;28;20057;-68
2022/12/05 11:26:35;;;;;;;78.68;72.25;;;;;;;;;;10105225;28;20054;-69
2022/12/05 11:31:31;;;;;;;82.10;75.43;;;;;;;;;;10102531;28;20164;-70
2022/12/05 11:36:36;;;;;;;81.55;74.72;;;;;;;;;;10096255;28;20131;-69
2022/12/05 11:41:39;;;;;;;69.50;63.20;;;;;;;;;;10102946;28;20569;-69
2022/12/05 11:46:42;;;;;;;67.35;61.25;;;;;;;;;;10092452;28;20522;-69
2022/12/05 11:51:47;;;;;;;64.53;58.67;;;;;;;;;;10105181;28;20047;-71
2022/12/05 11:56:48;;;;;;;69.53;63.05;;;;;;;;;;10100966;28;20443;-72
2022/12/05 12:02:04;;;;;;;70.97;65.20;;;;;;;;;;10083806;28;20047;-72
2022/12/05 12:07:04;;;;;;;69.47;63.28;;;;;;;;;;10066474;28;20074;-71
2022/12/05 12:12:19;;;;;;;66.10;60.75;;;;;;;;;;10104828;28;20138;-72
2022/12/05 12:17:15;;;;;;;67.68;61.55;;;;;;;;;;10110874;28;20051;-72
2022/12/05 12:22:11;;;;;;;66.55;60.83;;;;;;;;;;10106339;28;20125;-72
2022/12/05 12:27:10;;;;;;;71.40;65.43;;;;;;;;;;10098889;28;20139;-71
2022/12/05 12:32:29;;;;;;;66.43;60.92;;;;;;;;;;10106684;28;20138;-72
2022/12/05 12:37:35;;;;;;;69.63;63.97;;;;;;;;;;10116064;28;20066;-72
2022/12/05 12:42:31;;;;;;;72.25;66.40;;;;;;;;;;10121685;28;20066;-72
2022/12/05 12:47:46;;;;;;;69.82;64.43;;;;;;;;;;10123955;28;20541;-71
2022/12/05 12:52:42;;;;;;;66.90;61.75;;;;;;;;;;10128232;28;20154;-71
2022/12/05 12:58:04;;;;;;;74.43;68.53;;;;;;;;;;10113026;28;20046;-72
2022/12/05 13:03:21;;;;;;;70.20;64.78;;;;;;;;;;10135199;28;20092;-72
2022/12/05 13:08:17;;;;;;;70.60;64.95;;;;;;;;;;10122144;28;20077;-72
2022/12/05 13:13:19;;;;;;;71.18;65.85;;;;;;;;;;10117975;28;20126;-72
2022/12/05 13:18:17;;;;;;;70.25;64.65;;;;;;;;;;10118802;28;20152;-73
2022/12/05 13:23:15;;;;;;;72.32;66.78;;;;;;;;;;10131514;28;20121;-73
2022/12/05 13:28:28;;;;;;;72.60;66.93;;;;;;;;;;10114379;28;20529;-72
2022/12/05 13:33:25;;;;;;;72.85;67.20;;;;;;;;;;10127319;28;20142;-72
2022/12/05 13:43:47;;;;;;;73.22;67.45;;;;;;;;;;10093923;28;20142;-71
2022/12/05 13:49:05;;;;;;;72.00;66.32;;;;;;;;;;10092311;28;20097;-71
2022/12/05 13:54:24;;;;;;;74.13;68.78;;;;;;;;;;10096299;28;20102;-71
2022/12/05 13:59:39;;;;;;;75.38;69.72;;;;;;;;;;10099945;28;20042;-71
2022/12/05 14:04:41;;;;;;;72.72;67.20;;;;;;;;;;10092634;28;20129;-71
2022/12/05 14:09:38;;;;;;;;;;;;;;;;;;10094261;28;20062;-72
2022/12/05 14:14:53;;;;;;;73.10;67.35;;;;;;;;;;10113530;28;20016;-71
2022/12/05 14:19:54;;;;;;;73.55;67.88;;;;;;;;;;10111558;28;20101;-71
2022/12/05 14:25:00;;;;;;;72.88;67.55;;;;;;;;;;10111486;28;20093;-71
2022/12/05 14:30:01;;;;;;;71.88;66.55;;;;;;;;;;10110119;28;20054;-71
2022/12/05 14:35:01;;;;;;;71.60;66.05;;;;;;;;;;10108866;28;20043;-71
2022/12/05 14:40:02;;;;;;;73.10;67.70;;;;;;;;;;10096841;28;20374;-72
2022/12/05 14:45:00;;;;;;;72.25;66.80;;;;;;;;;;10097552;28;20066;-72
2022/12/05 14:50:00;;;;;;;71.70;66.47;;;;;;;;;;10109034;28;20514;-71
2022/12/05 14:55:04;;;;;;;72.55;67.32;;;;;;;;;;10096585;28;20047;-71
2022/12/05 15:00:05;;;;;;;74.68;69.07;;;;;;;;;;10106096;28;20051;-72
2022/12/05 15:05:14;;;;;;;68.53;63.63;;;;;;;;;;10102027;28;20146;-70
2022/12/05 15:10:25;;;;;;;71.25;65.97;;;;;;;;;;10111203;28;20058;-71
2022/12/05 15:15:24;;;;;;;72.60;67.25;;;;;;;;;;10109880;28;20081;-71
2022/12/05 15:20:39;;;;;;;68.75;63.47;;;;;;;;;;10091961;28;20046;-71
2022/12/05 15:25:36;;;;;;;71.03;66.13;;;;;;;;;;10098701;28;20050;-71
2022/12/05 15:30:34;;;;;;;74.05;68.93;;;;;;;;;;10093596;28;20049;-71
2022/12/05 15:35:31;;;;;;;70.10;65.18;;;;;;;;;;10095353;28;20130;-71
2022/12/05 15:40:36;;;;;;;71.63;66.65;;;;;;;;;;10095804;28;20042;-72
2022/12/05 15:45:32;;;;;;;71.70;66.88;;;;;;;;;;10110261;28;20066;-72
2022/12/05 15:50:39;;;;;;;73.45;68.22;;;;;;;;;;10115913;28;20146;-72
2022/12/05 15:55:42;;;;;;;71.40;66.32;;;;;;;;;;10101124;28;20415;-72
2022/12/05 16:00:39;;;;;;;71.15;66.10;;;;;;;;;;10100754;28;20051;-72
2022/12/05 16:05:51;;;;;;;66.43;61.70;;;;;;;;;;10109638;28;20047;-72
2022/12/05 16:10:48;;;;;;;69.03;64.20;;;;;;;;;;10107762;28;20050;-72
2022/12/05 16:15:46;;;;;;;70.05;64.95;;;;;;;;;;10107770;28;20142;-72
2022/12/05 16:20:49;;;;;;;71.47;66.68;;;;;;;;;;10108231;28;20055;-72
2022/12/05 16:25:45;;;;;;;75.03;69.80;;;;;;;;;;10106512;28;20043;-71
2022/12/05 16:30:55;;;;;;;69.40;64.50;;;;;;;;;;10091312;28;20042;-72
2022/12/05 16:35:51;;;;;;;68.85;64.40;;;;;;;;;;10089621;28;20043;-73
2022/12/05 16:40:54;;;;;;;69.03;64.28;;;;;;;;;;10083895;28;20422;-72
2022/12/05 16:45:51;;;;;;;69.35;64.75;;;;;;;;;;10087243;28;20077;-71
2022/12/05 16:50:49;;;;;;;63.47;59.20;;;;;;;;;;10090191;28;20066;-72
2022/12/05 16:55:45;;;;;;;70.35;65.45;;;;;;;;;;10111097;28;20134;-72
2022/12/05 17:00:41;;;;;;;67.32;62.40;;;;;;;;;;10114405;28;20099;-72
2022/12/05 17:05:38;;;;;;;67.43;62.55;;;;;;;;;;10125556;28;20050;-72
2022/12/05 17:10:34;;;;;;;67.72;63.17;;;;;;;;;;10115539;28;20550;-72
2022/12/05 17:15:31;;;;;;;72.25;67.45;;;;;;;;;;10112130;28;20043;-72
2022/12/05 17:20:27;;;;;;;69.50;64.80;;;;;;;;;;10109255;28;20129;-72
2022/12/05 17:25:24;;;;;;;71.20;66.53;;;;;;;;;;10114880;28;20069;-71
2022/12/05 17:30:20;;;;;;;69.53;65.03;;;;;;;;;;10110163;28;20049;-72
2022/12/05 17:35:17;;;;;;;67.55;62.88;;;;;;;;;;10109536;28;20046;-72
2022/12/05 17:40:14;;;;;;;67.28;62.78;;;;;;;;;;10111401;28;20051;-72
2022/12/05 17:45:11;;;;;;;65.43;60.85;;;;;;;;;;10107449;28;20045;-72
2022/12/05 17:50:13;;;;;;;68.07;63.28;;;;;;;;;;10110113;28;20138;-72
2022/12/05 17:55:20;;;;;;;63.73;59.33;;;;;;;;;;10111313;28;20762;-72
2022/12/05 18:00:17;;;;;;;68.55;63.25;;;;;;;;;;10109243;28;20077;-72
2022/12/05 18:05:14;;;;;;;67.63;63.00;;;;;;;;;;10110817;28;20141;-71
2022/12/05 18:10:13;;;;;;;67.60;63.13;;;;;;;;;;10113445;28;20493;-71
2022/12/05 18:15:10;;;;;;;69.35;64.60;;;;;;;;;;10111310;28;20049;-71
2022/12/05 18:20:08;;;;;;;69.15;64.20;;;;;;;;;;10109843;28;20054;-71
2022/12/05 18:25:05;;;;;;;62.53;58.00;;;;;;;;;;10111286;28;20077;-70
2022/12/05 18:30:02;;;;;;;63.67;59.03;;;;;;;;;;10112098;28;20558;-71
2022/12/05 18:35:00;;;;;;;60.97;56.80;;;;;;;;;;10113488;28;20650;-71
2022/12/05 18:39:57;;;;;;;63.75;59.45;;;;;;;;;;10107184;28;20512;-71
2022/12/05 18:44:53;;;;;;;65.28;60.97;;;;;;;;;;10108205;28;20039;-71
2022/12/05 18:49:50;;;;;;;62.80;58.83;;;;;;;;;;10107838;28;20047;-71
2022/12/05 18:54:46;;;;;;;66.47;62.08;;;;;;;;;;10119642;28;20125;-71
2022/12/05 19:00:02;;;;;;;69.57;64.68;;;;;;;;;;10106639;28;20047;-70
2022/12/05 19:04:59;;;;;;;65.80;61.40;;;;;;;;;;10096430;28;20053;-70
2022/12/05 19:09:56;;;;;;;67.07;62.70;;;;;;;;;;10104867;28;20045;-72
2022/12/05 19:14:52;;;;;;;68.97;64.65;;;;;;;;;;10086912;28;20394;-72
2022/12/05 19:19:48;;;;;;;66.95;62.30;;;;;;;;;;10103369;28;20043;-72
2022/12/05 19:24:44;;;;;;;68.88;64.40;;;;;;;;;;10114446;28;20061;-72
2022/12/05 19:29:41;;;;;;;70.43;65.68;;;;;;;;;;10124402;28;20053;-72
2022/12/05 19:34:37;;;;;;;70.57;65.72;;;;;;;;;;10119027;28;20049;-73
2022/12/05 19:39:33;;;;;;;71.20;66.30;;;;;;;;;;10117100;28;20114;-72
2022/12/05 19:44:30;;;;;;;71.82;67.00;;;;;;;;;;10119410;28;20045;-72
2022/12/05 19:49:26;;;;;;;76.03;71.05;;;;;;;;;;10109520;28;20053;-72
2022/12/05 19:54:23;;;;;;;74.07;69.25;;;;;;;;;;10112316;28;20049;-72
2022/12/05 19:59:20;;;;;;;71.60;66.68;;;;;;;;;;10116597;28;20101;-73
2022/12/05 20:04:16;;;;;;;65.47;60.97;;;;;;;;;;10092608;28;20039;-72
2022/12/05 20:09:13;;;;;;;66.60;62.10;;;;;;;;;;10123870;28;20056;-72
2022/12/05 20:14:11;;;;;;;66.70;61.80;;;;;;;;;;10109732;28;20089;-72
2022/12/05 20:19:07;;;;;;;68.15;63.13;;;;;;;;;;10108447;28;20149;-73
2022/12/05 20:24:04;;;;;;;68.38;63.58;;;;;;;;;;10114572;28;20043;-72
2022/12/05 20:29:00;;;;;;;67.57;62.63;;;;;;;;;;10131649;28;20058;-72
2022/12/05 20:33:57;;;;;;;71.55;66.45;;;;;;;;;;10135922;28;20139;-72
2022/12/05 20:38:55;;;;;;;72.63;67.28;;;;;;;;;;10126684;28;20655;-72
2022/12/05 20:43:55;;;;;;;79.00;73.68;;;;;;;;;;10122174;28;20049;-72
2022/12/05 20:48:52;;;;;;;80.15;74.68;;;;;;;;;;10117509;28;20642;-72
2022/12/05 20:53:48;;;;;;;79.35;73.63;;;;;;;;;;10132050;28;20121;-73
2022/12/05 20:58:46;;;;;;;81.40;75.85;;;;;;;;;;10117271;28;20049;-72
2022/12/05 21:03:44;;;;;;;81.57;76.05;;;;;;;;;;10083688;28;20039;-72
2022/12/05 21:08:41;;;;;;;82.30;77.00;;;;;;;;;;10093064;28;20051;-63
2022/12/05 21:13:37;;;;;;;81.30;76.05;;;;;;;;;;10117602;28;20050;-72
2022/12/05 21:18:34;;;;;;;83.30;77.78;;;;;;;;;;10121978;28;20131;-74
2022/12/05 21:23:30;;;;;;;82.18;76.88;;;;;;;;;;10117379;28;20412;-73
2022/12/05 21:28:27;;;;;;;85.57;79.88;;;;;;;;;;10089917;28;20066;-72
2022/12/05 21:33:24;;;;;;;81.72;76.03;;;;;;;;;;10098486;28;20412;-69
2022/12/05 21:38:24;;;;;;;85.85;80.38;;;;;;;;;;10097670;28;20051;-69
2022/12/05 21:43:20;;;;;;;83.45;77.68;;;;;;;;;;10102543;28;20038;-69
2022/12/05 21:48:17;;;;;;;77.82;72.78;;;;;;;;;;10094431;28;20154;-70
2022/12/05 21:53:13;;;;;;;79.38;74.00;;;;;;;;;;10112572;28;20045;-70
2022/12/05 21:58:10;;;;;;;73.97;69.00;;;;;;;;;;10123267;28;20093;-69
2022/12/05 22:03:06;;;;;;;77.63;72.05;;;;;;;;;;10122181;28;20035;-70
2022/12/05 22:08:02;;;;;;;78.05;72.80;;;;;;;;;;10111012;28;20053;-70
2022/12/05 22:13:02;;;;;;;81.00;74.90;;;;;;;;;;10116084;28;20060;-72
2022/12/05 22:17:59;;;;;;;85.63;79.78;;;;;;;;;;10127357;28;20038;-73
2022/12/05 22:22:55;;;;;;;83.22;77.43;;;;;;;;;;10130103;28;20050;-72
2022/12/05 22:27:54;;;;;;;87.63;81.72;;;;;;;;;;10120934;28;20417;-72
2022/12/05 22:32:52;;;;;;;85.75;79.88;;;;;;;;;;10119585;28;20048;-73
2022/12/05 22:37:48;;;;;;;89.22;82.88;;;;;;;;;;10127545;28;20043;-74
2022/12/05 22:42:44;;;;;;;85.65;79.93;;;;;;;;;;10120120;28;20057;-73
2022/12/05 22:47:40;;;;;;;88.22;82.47;;;;;;;;;;10120395;28;20141;-73
2022/12/05 22:52:37;;;;;;;89.57;83.47;;;;;;;;;;10128867;28;20047;-73
2022/12/05 22:57:33;;;;;;;90.60;84.43;;;;;;;;;;10123460;28;20034;-73
2022/12/05 23:02:30;;;;;;;87.53;81.55;;;;;;;;;;10129880;28;20113;-74
2022/12/05 23:07:26;;;;;;;82.82;77.45;;;;;;;;;;10115305;28;20447;-72
2022/12/05 23:12:22;;;;;;;88.60;82.78;;;;;;;;;;10141030;28;20073;-71
2022/12/05 23:17:18;;;;;;;90.72;84.93;;;;;;;;;;10105069;28;20513;-72
2022/12/05 23:22:15;;;;;;;91.38;85.40;;;;;;;;;;10120165;28;20049;-71
2022/12/05 23:27:11;;;;;;;92.57;86.47;;;;;;;;;;10119008;28;20055;-70
2022/12/05 23:32:07;;;;;;;90.32;84.35;;;;;;;;;;10124414;28;20077;-70
2022/12/05 23:37:04;;;;;;;90.82;84.75;;;;;;;;;;10120462;28;20048;-72
2022/12/05 23:42:00;;;;;;;85.93;80.13;;;;;;;;;;10118899;28;20585;-70
2022/12/05 23:46:56;;;;;;;84.97;79.35;;;;;;;;;;10120100;28;20417;-70
2022/12/05 23:51:53;;;;;;;82.43;76.68;;;;;;;;;;10133704;28;20129;-70
2022/12/05 23:56:49;;;;;;;86.43;80.25;;;;;;;;;;10117295;28;20387;-70
